createdAt,value
2023-01-19T00:01:28.217Z,98985.63
2023-01-19T00:03:55.881Z,98975.34
2023-01-19T00:06:23.298Z,98968.81
2023-01-19T00:08:50.900Z,98977.69
2023-01-19T00:11:18.758Z,98972.53
2023-01-19T00:13:49.867Z,98975.84
2023-01-19T00:16:18.264Z,98977.88
2023-01-19T00:18:46.259Z,98986.56
2023-01-19T00:21:16.961Z,98979.44
2023-01-19T00:23:47.386Z,98983.59
2023-01-19T00:26:16.349Z,98974.03
2023-01-19T00:28:44.400Z,98975.31
2023-01-19T00:31:12.048Z,98975.53
2023-01-19T00:33:39.786Z,98971.03
2023-01-19T00:36:07.467Z,98974.34
2023-01-19T00:38:34.819Z,98962.19
2023-01-19T00:41:02.619Z,98966.84
2023-01-19T00:43:29.959Z,98941.63
2023-01-19T00:45:57.397Z,98946.28
2023-01-19T00:48:25.137Z,98940.06
2023-01-19T00:50:52.474Z,98930.78
2023-01-19T00:53:20.101Z,98925.87
2023-01-19T00:55:47.822Z,98930.56
2023-01-19T00:58:15.337Z,98939.34
2023-01-19T01:00:42.761Z,98940.94
2023-01-19T01:03:10.668Z,98944.72
2023-01-19T01:05:40.238Z,98942.94
2023-01-19T01:08:07.905Z,98946.56
2023-01-19T01:10:35.662Z,98943.06
2023-01-19T01:13:22.390Z,98947.59
2023-01-19T01:15:51.376Z,98944.50
2023-01-19T01:18:18.870Z,98928.94
2023-01-19T01:20:46.238Z,98946.31
2023-01-19T01:23:14.428Z,98940.53
2023-01-19T01:25:42.628Z,98929.59
2023-01-19T01:28:10.089Z,98927.19
2023-01-19T01:30:41.137Z,98921.56
2023-01-19T01:33:08.739Z,98922.31
2023-01-19T01:35:36.054Z,98900.03
2023-01-19T01:38:04.029Z,98891.00
2023-01-19T01:40:31.361Z,98878.16
2023-01-19T01:42:59.147Z,98884.25
2023-01-19T01:45:34.931Z,98882.88
2023-01-19T01:48:05.700Z,98869.12
2023-01-19T01:50:35.354Z,98873.31
2023-01-19T01:53:07.961Z,98885.06
2023-01-19T01:55:41.342Z,98867.38
2023-01-19T01:58:10.165Z,98866.84
2023-01-19T02:00:57.913Z,98861.06
2023-01-19T02:03:26.309Z,98831.22
2023-01-19T02:05:59.321Z,98837.03
2023-01-19T02:09:05.503Z,98825.81
2023-01-19T02:11:51.731Z,98802.56
2023-01-19T02:14:19.496Z,98826.13
2023-01-19T02:16:47.345Z,98825.56
2023-01-19T02:19:17.825Z,98833.16
2023-01-19T02:22:04.462Z,98833.44
2023-01-19T02:24:32.113Z,98837.63
2023-01-19T02:26:59.992Z,98825.28
2023-01-19T02:29:28.248Z,98819.87
2023-01-19T02:31:57.332Z,98823.88
2023-01-19T02:34:24.959Z,98821.91
2023-01-19T02:36:54.547Z,98839.00
2023-01-19T02:39:25.812Z,98833.00
2023-01-19T02:41:55.463Z,98840.34
2023-01-19T02:44:23.287Z,98841.28
2023-01-19T02:46:53.219Z,98832.31
2023-01-19T02:49:21.059Z,98831.69
2023-01-19T02:51:48.945Z,98825.22
2023-01-19T02:54:25.137Z,98835.59
2023-01-19T02:57:18.032Z,98838.88
2023-01-19T02:59:48.305Z,98848.31
2023-01-19T03:02:17.689Z,98859.50
2023-01-19T03:04:54.491Z,98864.13
2023-01-19T03:07:44.894Z,98871.31
2023-01-19T03:10:30.995Z,98843.50
2023-01-19T03:12:59.124Z,98830.78
2023-01-19T03:15:39.783Z,98834.87
2023-01-19T03:18:10.070Z,98819.53
2023-01-19T03:20:38.506Z,98826.78
2023-01-19T03:23:08.977Z,98836.16
2023-01-19T03:25:38.967Z,98835.53
2023-01-19T03:28:06.348Z,98827.91
2023-01-19T03:30:37.559Z,98825.84
2023-01-19T03:33:09.319Z,98824.22
2023-01-19T03:35:40.081Z,98814.75
2023-01-19T03:38:10.430Z,98810.09
2023-01-19T03:40:38.618Z,98820.97
2023-01-19T03:43:06.471Z,98819.84
2023-01-19T03:45:37.161Z,98815.31
2023-01-19T03:48:05.241Z,98822.00
2023-01-19T03:50:32.629Z,98819.19
2023-01-19T03:53:01.383Z,98806.69
2023-01-19T03:55:29.490Z,98803.81
2023-01-19T03:57:56.889Z,98801.12
2023-01-19T04:00:24.600Z,98801.41
2023-01-19T04:02:52.456Z,98812.94
2023-01-19T04:05:19.814Z,98823.00
2023-01-19T04:07:54.052Z,98815.00
2023-01-19T04:10:22.135Z,98804.41
2023-01-19T04:12:49.668Z,98801.91
2023-01-19T04:15:18.604Z,98796.87
2023-01-19T04:17:46.561Z,98804.09
2023-01-19T04:20:14.116Z,98818.81
2023-01-19T04:22:42.422Z,98833.06
2023-01-19T04:25:10.541Z,98839.94
2023-01-19T04:27:37.982Z,98856.06
2023-01-19T04:30:05.882Z,98859.53
2023-01-19T04:32:33.929Z,98865.97
2023-01-19T04:35:01.437Z,98870.31
2023-01-19T04:37:28.872Z,98867.09
2023-01-19T04:39:56.787Z,98872.78
2023-01-19T04:42:24.112Z,98875.84
2023-01-19T04:44:52.609Z,98881.63
2023-01-19T04:47:20.351Z,98871.59
2023-01-19T04:49:47.689Z,98872.47
2023-01-19T04:52:15.104Z,98863.47
2023-01-19T04:54:42.845Z,98856.19
2023-01-19T04:57:10.312Z,98861.59
2023-01-19T04:59:37.772Z,98855.28
2023-01-19T05:02:05.520Z,98853.03
2023-01-19T05:04:32.887Z,98856.22
2023-01-19T05:07:00.211Z,98856.53
2023-01-19T05:09:28.053Z,98846.41
2023-01-19T05:11:55.454Z,98845.88
2023-01-19T05:14:22.864Z,98844.47
2023-01-19T05:16:50.621Z,98846.28
2023-01-19T05:19:18.099Z,98856.94
2023-01-19T05:21:45.409Z,98856.00
2023-01-19T05:24:13.113Z,98856.88
2023-01-19T05:26:40.468Z,98859.47
2023-01-19T05:29:08.298Z,98853.97
2023-01-19T05:31:37.166Z,98854.47
2023-01-19T05:34:04.828Z,98854.88
2023-01-19T05:36:32.685Z,98861.09
2023-01-19T05:39:00.413Z,98867.56
2023-01-19T05:41:27.897Z,98874.00
2023-01-19T05:43:55.253Z,98873.69
2023-01-19T05:46:22.989Z,98881.16
2023-01-19T05:48:50.543Z,98884.50
2023-01-19T05:51:18.033Z,98892.22
2023-01-19T05:53:45.918Z,98894.66
2023-01-19T05:56:13.350Z,98906.31
2023-01-19T05:58:41.060Z,98902.63
2023-01-19T06:01:09.912Z,98908.63
2023-01-19T06:03:39.332Z,98911.03
2023-01-19T06:06:06.926Z,98916.34
2023-01-19T06:08:34.442Z,98909.97
2023-01-19T06:11:02.133Z,98924.44
2023-01-19T06:13:29.487Z,98930.78
2023-01-19T06:15:57.984Z,98929.84
2023-01-19T06:18:25.732Z,98922.69
2023-01-19T06:20:58.575Z,98921.13
2023-01-19T06:23:26.782Z,98925.78
2023-01-19T06:25:54.165Z,98922.78
2023-01-19T06:28:22.276Z,98918.37
2023-01-19T06:30:50.612Z,98915.34
2023-01-19T06:33:18.602Z,98916.88
2023-01-19T06:35:46.802Z,98909.72
2023-01-19T06:38:14.649Z,98907.62
2023-01-19T06:40:42.068Z,98912.47
2023-01-19T06:43:09.766Z,98902.94
2023-01-19T06:45:39.304Z,98906.03
2023-01-19T06:48:06.922Z,98917.28
2023-01-19T06:50:34.675Z,98917.69
2023-01-19T06:53:03.018Z,98928.03
2023-01-19T06:55:30.689Z,98927.31
2023-01-19T06:57:58.981Z,98931.63
2023-01-19T07:00:27.000Z,98941.31
2023-01-19T07:02:54.515Z,98937.28
2023-01-19T07:05:22.261Z,98941.66
2023-01-19T07:07:54.359Z,98951.97
2023-01-19T07:10:21.889Z,98949.25
2023-01-19T07:12:49.823Z,98957.19
2023-01-19T07:15:19.626Z,98950.44
2023-01-19T07:17:47.047Z,98948.22
2023-01-19T07:20:15.130Z,98950.94
2023-01-19T07:22:46.566Z,98956.59
2023-01-19T07:25:14.177Z,98952.97
2023-01-19T07:27:41.871Z,98962.09
2023-01-19T07:30:09.789Z,98953.53
2023-01-19T07:32:37.932Z,98955.28
2023-01-19T07:35:05.786Z,98960.97
2023-01-19T07:37:33.247Z,98958.16
2023-01-19T07:40:01.014Z,98957.28
2023-01-19T07:42:28.732Z,98954.09
2023-01-19T07:44:56.667Z,98951.22
2023-01-19T07:47:24.023Z,98949.28
2023-01-19T07:49:52.712Z,98952.97
2023-01-19T07:52:20.267Z,98959.00
2023-01-19T07:54:50.862Z,98962.00
2023-01-19T07:57:19.322Z,98956.25
2023-01-19T07:59:46.674Z,98956.03
2023-01-19T08:02:16.357Z,98964.03
2023-01-19T08:04:47.469Z,98969.06
2023-01-19T08:07:14.839Z,98964.72
2023-01-19T08:09:42.227Z,98970.31
2023-01-19T08:12:09.961Z,98963.94
2023-01-19T08:14:37.321Z,98962.38
2023-01-19T08:17:04.783Z,98957.09
2023-01-19T08:19:32.550Z,98954.88
2023-01-19T08:22:00.152Z,98957.19
2023-01-19T08:24:29.218Z,98958.72
2023-01-19T08:27:00.777Z,98968.66
2023-01-19T08:29:30.721Z,98972.72
2023-01-19T08:32:00.294Z,98979.66
2023-01-19T08:34:27.735Z,98973.41
2023-01-19T08:36:55.146Z,98972.91
2023-01-19T08:39:24.547Z,98959.56
2023-01-19T08:41:52.532Z,98968.69
2023-01-19T08:44:19.989Z,98977.34
2023-01-19T08:46:47.782Z,98976.84
2023-01-19T08:49:15.876Z,98978.00
2023-01-19T08:51:46.317Z,98985.91
2023-01-19T08:54:14.228Z,98985.59
2023-01-19T08:56:41.575Z,98982.81
2023-01-19T08:59:11.270Z,98991.88
2023-01-19T09:01:39.982Z,98999.03
2023-01-19T09:04:08.085Z,98985.91
2023-01-19T09:06:35.931Z,98991.69
2023-01-19T09:09:04.046Z,98992.75
2023-01-19T09:11:31.443Z,99002.31
2023-01-19T09:13:59.163Z,99001.25
2023-01-19T09:16:27.297Z,98997.50
2023-01-19T09:18:54.935Z,98999.81
2023-01-19T09:21:22.308Z,99010.91
2023-01-19T09:23:50.245Z,99008.69
2023-01-19T09:26:17.810Z,99008.19
2023-01-19T09:28:45.276Z,99018.22
2023-01-19T09:31:13.161Z,99016.69
2023-01-19T09:33:40.547Z,99014.47
2023-01-19T09:36:10.819Z,99013.97
2023-01-19T09:38:38.893Z,99017.94
2023-01-19T09:41:13.407Z,99019.38
2023-01-19T09:43:51.455Z,99024.41
2023-01-19T09:46:25.274Z,99019.84
2023-01-19T09:48:54.712Z,99005.19
2023-01-19T09:51:23.576Z,99011.16
2023-01-19T09:53:55.558Z,99001.53
2023-01-19T09:56:23.908Z,99013.31
2023-01-19T09:58:52.070Z,99012.72
2023-01-19T10:01:24.248Z,99017.25
2023-01-19T10:04:00.318Z,99012.44
2023-01-19T10:06:27.937Z,99009.72
2023-01-19T10:08:58.992Z,99012.34
2023-01-19T10:11:29.149Z,99000.69
2023-01-19T10:14:03.138Z,98981.88
2023-01-19T10:16:50.867Z,98986.00
2023-01-19T10:19:24.843Z,98983.88
2023-01-19T10:21:53.662Z,98994.16
2023-01-19T10:24:23.963Z,99001.50
2023-01-19T10:26:53.272Z,98999.72
2023-01-19T10:29:20.972Z,98999.38
2023-01-19T10:31:50.012Z,98984.16
2023-01-19T10:34:23.360Z,98976.66
2023-01-19T10:36:55.055Z,98970.00
2023-01-19T10:39:22.525Z,98982.13
2023-01-19T10:41:51.843Z,98965.63
2023-01-19T10:44:27.187Z,98965.84
2023-01-19T10:46:58.810Z,98968.84
2023-01-19T10:49:39.839Z,98968.97
2023-01-19T10:52:08.830Z,98967.62
2023-01-19T10:54:37.510Z,98971.19
2023-01-19T10:57:07.152Z,98977.72
2023-01-19T10:59:34.565Z,98984.78
2023-01-19T11:02:04.012Z,98987.78
2023-01-19T11:04:31.432Z,98984.09
2023-01-19T11:07:12.966Z,98968.69
2023-01-19T11:09:40.996Z,98963.13
2023-01-19T11:12:15.927Z,98963.25
2023-01-19T11:14:43.814Z,98979.63
2023-01-19T11:17:29.254Z,98995.16
2023-01-19T11:19:59.496Z,99001.34
2023-01-19T11:22:32.499Z,98997.03
2023-01-19T11:25:02.062Z,98997.75
2023-01-19T11:27:30.986Z,99004.91
2023-01-19T11:29:58.375Z,99015.16
2023-01-19T11:32:27.395Z,99017.78
2023-01-19T11:34:54.904Z,99012.59
2023-01-19T11:37:27.273Z,99000.81
2023-01-19T11:39:59.243Z,99001.94
2023-01-19T11:42:28.239Z,99000.28
2023-01-19T11:45:02.711Z,98999.00
2023-01-19T11:47:38.571Z,99009.09
2023-01-19T11:50:12.040Z,99009.63
2023-01-19T11:52:44.055Z,99010.25
2023-01-19T11:55:18.034Z,99008.47
2023-01-19T11:57:49.752Z,99008.56
2023-01-19T12:00:26.523Z,99003.19
2023-01-19T12:02:58.942Z,99009.50
2023-01-19T12:05:29.802Z,99012.44
2023-01-19T12:07:59.391Z,99013.94
2023-01-19T12:10:28.959Z,99014.41
2023-01-19T12:12:56.795Z,99009.53
2023-01-19T12:15:24.205Z,99026.66
2023-01-19T12:17:58.543Z,99025.41
2023-01-19T12:20:26.387Z,99017.22
2023-01-19T12:23:09.221Z,99022.50
2023-01-19T12:25:42.791Z,99028.66
2023-01-19T12:28:13.404Z,99018.84
2023-01-19T12:30:41.335Z,99024.13
2023-01-19T12:33:29.033Z,99023.28
2023-01-19T12:35:58.683Z,99033.47
2023-01-19T12:38:44.536Z,99019.50
2023-01-19T12:41:27.330Z,99037.00
2023-01-19T12:44:19.255Z,99034.25
2023-01-19T12:46:50.216Z,99041.34
2023-01-19T12:49:26.974Z,99038.16
2023-01-19T12:52:12.966Z,99045.06
2023-01-19T12:54:43.593Z,99047.13
2023-01-19T12:57:20.345Z,99054.53
2023-01-19T12:59:55.400Z,99057.97
2023-01-19T13:02:23.190Z,99067.75
2023-01-19T13:05:09.541Z,99064.72
2023-01-19T13:07:56.202Z,99067.69
2023-01-19T13:10:42.473Z,99070.87
2023-01-19T13:13:40.006Z,99080.00
2023-01-19T13:16:19.875Z,99086.56
2023-01-19T13:18:53.936Z,99074.56
2023-01-19T13:21:33.550Z,99080.41
2023-01-19T13:24:05.392Z,99089.72
2023-01-19T13:26:57.467Z,99093.09
2023-01-19T13:29:34.091Z,99097.69
2023-01-19T13:32:03.958Z,99098.00
2023-01-19T13:34:39.193Z,99092.88
2023-01-19T13:37:11.836Z,99115.16
2023-01-19T13:39:41.799Z,99116.34
2023-01-19T13:42:15.148Z,99122.38
2023-01-19T13:45:03.039Z,99116.63
2023-01-19T13:47:33.351Z,99127.13
2023-01-19T13:50:01.567Z,99136.72
2023-01-19T13:52:29.457Z,99127.34
2023-01-19T13:55:01.150Z,99135.66
2023-01-19T13:57:34.201Z,99134.84
2023-01-19T14:00:06.536Z,99135.38
2023-01-19T14:02:42.709Z,99150.31
2023-01-19T14:05:22.856Z,99150.31
2023-01-19T14:07:59.662Z,99142.75
2023-01-19T14:10:28.006Z,99146.66
2023-01-19T14:13:14.025Z,99149.75
2023-01-19T14:15:48.778Z,99152.34
2023-01-19T14:18:16.180Z,99170.59
2023-01-19T14:20:53.970Z,99176.22
2023-01-19T14:23:40.003Z,99187.00
2023-01-19T14:26:26.283Z,99190.50
2023-01-19T14:28:53.873Z,99200.25
2023-01-19T14:31:23.003Z,99212.53
2023-01-19T14:33:52.117Z,99211.41
2023-01-19T14:36:22.530Z,99223.66
2023-01-19T14:38:51.167Z,99213.81
2023-01-19T14:41:24.442Z,99218.94
2023-01-19T14:43:52.269Z,99223.59
2023-01-19T14:46:19.881Z,99232.25
2023-01-19T14:48:48.602Z,99228.63
2023-01-19T14:51:18.167Z,99237.66
2023-01-19T14:53:50.867Z,99241.50
2023-01-19T14:56:28.864Z,99250.75
2023-01-19T14:58:57.305Z,99257.13
2023-01-19T15:01:28.474Z,99251.41
2023-01-19T15:03:57.029Z,99261.69
2023-01-19T15:06:26.102Z,99261.09
2023-01-19T15:08:53.692Z,99266.91
2023-01-19T15:13:02.098Z,99269.44
2023-01-19T15:15:35.047Z,99285.00
2023-01-19T15:18:05.215Z,99296.91
2023-01-19T15:20:33.192Z,99304.19
2023-01-19T15:23:00.791Z,99301.84
2023-01-19T15:25:30.472Z,99309.53
2023-01-19T15:27:59.438Z,99307.34
2023-01-19T15:30:31.052Z,99308.22
2023-01-19T15:32:59.555Z,99323.69
2023-01-19T15:35:27.412Z,99323.13
2023-01-19T15:37:55.530Z,99324.44
2023-01-19T15:40:23.545Z,99340.78
2023-01-19T15:42:51.269Z,99347.69
2023-01-19T15:45:32.105Z,99362.72
2023-01-19T15:48:08.576Z,99365.47
2023-01-19T15:50:41.896Z,99372.22
2023-01-19T15:53:18.335Z,99368.63
2023-01-19T15:55:50.345Z,99379.44
2023-01-19T15:58:20.744Z,99379.44
2023-01-19T16:00:59.031Z,99377.97
2023-01-19T16:03:27.138Z,99373.03
2023-01-19T16:05:54.916Z,99387.78
2023-01-19T16:08:22.598Z,99388.34
2023-01-19T16:10:50.584Z,99377.91
2023-01-19T16:13:18.264Z,99389.34
2023-01-19T16:15:45.855Z,99395.88
2023-01-19T16:18:13.881Z,99390.09
2023-01-19T16:20:41.504Z,99401.78
2023-01-19T16:23:14.839Z,99402.34
2023-01-19T16:25:43.550Z,99409.81
2023-01-19T16:28:11.551Z,99418.12
2023-01-19T16:30:39.349Z,99414.25
2023-01-19T16:33:08.532Z,99428.78
2023-01-19T16:35:36.262Z,99427.78
2023-01-19T16:38:04.152Z,99427.22
2023-01-19T16:40:32.227Z,99438.63
2023-01-19T16:42:59.847Z,99442.00
2023-01-19T16:45:27.510Z,99444.87
2023-01-19T16:47:55.549Z,99459.87
2023-01-19T16:50:23.147Z,99476.75
2023-01-19T16:52:56.163Z,99480.66
2023-01-19T16:55:24.285Z,99492.56
2023-01-19T16:57:52.641Z,99488.16
2023-01-19T17:00:20.871Z,99481.69
2023-01-19T17:02:49.197Z,99481.16
2023-01-19T17:05:16.843Z,99488.94
2023-01-19T17:07:44.644Z,99497.75
2023-01-19T17:10:13.141Z,99509.44
2023-01-19T17:12:41.105Z,99508.91
2023-01-19T17:15:09.487Z,99522.09
2023-01-19T17:17:38.050Z,99523.91
2023-01-19T17:20:06.505Z,99545.34
2023-01-19T17:22:34.189Z,99547.22
2023-01-19T17:25:02.174Z,99566.59
2023-01-19T17:27:30.165Z,99573.72
2023-01-19T17:29:57.712Z,99584.47
2023-01-19T17:32:25.693Z,99584.72
2023-01-19T17:34:53.489Z,99593.03
2023-01-19T17:37:21.355Z,99597.00
2023-01-19T17:39:49.995Z,99596.06
2023-01-19T17:42:17.728Z,99609.28
2023-01-19T17:44:45.729Z,99605.31
2023-01-19T17:47:13.738Z,99611.09
2023-01-19T17:49:41.550Z,99622.63
2023-01-19T17:52:09.523Z,99617.44
2023-01-19T17:54:37.700Z,99635.69
2023-01-19T17:57:05.481Z,99637.91
2023-01-19T17:59:33.369Z,99635.72
2023-01-19T18:02:01.771Z,99628.37
2023-01-19T18:04:32.095Z,99621.81
2023-01-19T18:07:01.021Z,99626.00
2023-01-19T18:09:29.234Z,99618.50
2023-01-19T18:11:57.296Z,99629.63
2023-01-19T18:14:24.830Z,99631.28
2023-01-19T18:16:53.034Z,99642.09
2023-01-19T18:19:22.438Z,99652.06
2023-01-19T18:21:51.021Z,99639.56
2023-01-19T18:24:19.138Z,99654.62
2023-01-19T18:26:47.028Z,99666.53
2023-01-19T18:29:16.712Z,99678.78
2023-01-19T18:31:45.139Z,99684.97
2023-01-19T18:34:13.318Z,99682.59
2023-01-19T18:36:40.944Z,99694.47
2023-01-19T18:39:09.498Z,99697.34
2023-01-19T18:41:43.502Z,99690.34
2023-01-19T18:44:12.401Z,99694.28
2023-01-19T18:46:40.610Z,99689.91
2023-01-19T18:49:08.458Z,99689.37
2023-01-19T18:51:39.597Z,99685.16
2023-01-19T18:54:09.010Z,99678.16
2023-01-19T18:56:37.184Z,99682.31
2023-01-19T18:59:05.597Z,99688.81
2023-01-19T19:01:35.153Z,99698.84
2023-01-19T19:04:03.967Z,99717.84
2023-01-19T19:06:31.732Z,99720.06
2023-01-19T19:08:59.813Z,99722.03
2023-01-19T19:11:28.307Z,99726.09
2023-01-19T19:13:58.914Z,99748.00
2023-01-19T19:16:27.794Z,99734.34
2023-01-19T19:18:55.763Z,99736.94
2023-01-19T19:21:25.547Z,99723.56
2023-01-19T19:23:58.466Z,99726.63
2023-01-19T19:26:28.220Z,99727.59
2023-01-19T19:28:56.868Z,99736.66
2023-01-19T19:31:26.183Z,99733.84
2023-01-19T19:33:55.763Z,99739.22
2023-01-19T19:36:25.063Z,99738.19
2023-01-19T19:38:53.221Z,99738.03
2023-01-19T19:41:24.006Z,99737.66
2023-01-19T19:43:52.811Z,99737.50
2023-01-19T19:46:24.239Z,99743.97
2023-01-19T19:48:54.095Z,99738.19
2023-01-19T19:51:27.186Z,99745.56
2023-01-19T19:53:59.261Z,99750.88
2023-01-19T19:56:29.778Z,99758.13
2023-01-19T19:58:59.500Z,99761.81
2023-01-19T20:01:32.616Z,99752.81
2023-01-19T20:04:10.678Z,99755.72
2023-01-19T20:06:41.072Z,99752.47
2023-01-19T20:09:10.820Z,99750.59
2023-01-19T20:11:39.460Z,99761.72
2023-01-19T20:14:09.486Z,99770.91
2023-01-19T20:16:38.454Z,99776.78
2023-01-19T20:19:06.758Z,99780.25
2023-01-19T20:21:37.264Z,99771.97
2023-01-19T20:24:09.056Z,99764.56
2023-01-19T20:26:39.279Z,99783.62
2023-01-19T20:29:11.669Z,99783.72
2023-01-19T20:31:46.914Z,99789.44
2023-01-19T20:34:17.813Z,99788.66
2023-01-19T20:36:49.568Z,99774.91
2023-01-19T20:39:19.223Z,99771.03
2023-01-19T20:41:50.098Z,99784.47
2023-01-19T20:44:22.419Z,99763.00
2023-01-19T20:46:51.439Z,99750.81
2023-01-19T20:49:20.090Z,99752.69
2023-01-19T20:51:48.414Z,99758.97
2023-01-19T20:54:18.282Z,99767.31
2023-01-19T20:56:46.276Z,99777.91
2023-01-19T20:59:14.260Z,99784.16
2023-01-19T21:01:42.786Z,99786.28
2023-01-19T21:04:12.202Z,99801.88
2023-01-19T21:06:41.145Z,99817.66
2023-01-19T21:09:10.929Z,99824.97
2023-01-19T21:11:39.669Z,99831.22
2023-01-19T21:14:07.681Z,99829.25
2023-01-19T21:16:36.445Z,99833.78
2023-01-19T21:19:05.147Z,99851.03
2023-01-19T21:21:33.144Z,99856.78
2023-01-19T21:24:02.417Z,99850.78
2023-01-19T21:26:30.996Z,99849.41
2023-01-19T21:28:59.759Z,99859.13
2023-01-19T21:31:28.324Z,99863.87
2023-01-19T21:33:57.913Z,99876.06
2023-01-19T21:36:25.898Z,99886.56
2023-01-19T21:38:55.711Z,99880.06
2023-01-19T21:41:23.651Z,99872.63
2023-01-19T21:43:51.257Z,99882.00
2023-01-19T21:46:20.322Z,99889.16
2023-01-19T21:48:48.816Z,99897.31
2023-01-19T21:51:16.550Z,99899.63
2023-01-19T21:53:46.219Z,99899.81
2023-01-19T21:56:14.088Z,99901.41
2023-01-19T21:58:42.212Z,99898.94
2023-01-19T22:01:11.065Z,99895.09
2023-01-19T22:03:39.915Z,99899.25
2023-01-19T22:06:10.390Z,99904.59
2023-01-19T22:08:38.420Z,99897.19
2023-01-19T22:11:08.765Z,99894.16
2023-01-19T22:13:38.692Z,99902.31
2023-01-19T22:16:19.183Z,99912.19
2023-01-19T22:18:51.704Z,99908.03
2023-01-19T22:21:21.923Z,99906.94
2023-01-19T22:23:55.231Z,99900.69
2023-01-19T22:26:23.699Z,99883.53
2023-01-19T22:28:55.923Z,99884.75
2023-01-19T22:31:24.976Z,99882.84
2023-01-19T22:33:52.982Z,99883.94
2023-01-19T22:36:29.588Z,99890.94
2023-01-19T22:38:59.882Z,99888.03
2023-01-19T22:41:46.665Z,99886.69
2023-01-19T22:44:22.875Z,99884.88
2023-01-19T22:46:54.191Z,99878.09
2023-01-19T22:49:22.277Z,99876.69
2023-01-19T22:51:49.932Z,99873.41
2023-01-19T22:54:17.511Z,99877.53
2023-01-19T22:56:45.846Z,99872.34
2023-01-19T22:59:13.547Z,99865.69
2023-01-19T23:01:43.671Z,99862.91
2023-01-19T23:04:13.564Z,99861.28
2023-01-19T23:06:41.423Z,99853.47
2023-01-19T23:09:13.856Z,99853.75
2023-01-19T23:11:44.662Z,99846.31
2023-01-19T23:14:14.872Z,99844.84
2023-01-19T23:16:43.139Z,99849.88
2023-01-19T23:19:12.344Z,99851.88
2023-01-19T23:21:41.018Z,99856.16
2023-01-19T23:24:09.320Z,99851.16
2023-01-19T23:26:38.442Z,99831.59
2023-01-19T23:29:10.129Z,99835.03
2023-01-19T23:31:38.918Z,99829.62
2023-01-19T23:34:08.918Z,99828.34
2023-01-19T23:36:39.124Z,99837.12
2023-01-19T23:39:18.250Z,99839.03
2023-01-19T23:41:47.084Z,99833.44
2023-01-19T23:44:15.496Z,99830.97
2023-01-19T23:46:43.990Z,99830.03
2023-01-19T23:49:12.538Z,99840.00
2023-01-19T23:51:40.967Z,99842.81
2023-01-19T23:54:08.807Z,99839.66
2023-01-19T23:56:37.561Z,99848.69
2023-01-19T23:59:12.442Z,99855.47
